createdAt,value
2023-02-01T00:00:21.170Z,99293.38
2023-02-01T00:05:55.362Z,99289.23
2023-02-01T00:11:06.035Z,99289.02
2023-02-01T00:16:17.325Z,99280.92
2023-02-01T00:21:23.275Z,99274.68
2023-02-01T00:26:34.396Z,99272.20
2023-02-01T00:31:38.705Z,99281.73
2023-02-01T00:36:45.924Z,99288.24
2023-02-01T00:41:51.627Z,99292.88
2023-02-01T00:46:57.396Z,99300.05
2023-02-01T00:52:03.590Z,99301.73
2023-02-01T00:57:09.397Z,99297.59
2023-02-01T01:02:23.022Z,99306.82
2023-02-01T01:07:30.825Z,99305.31
2023-02-01T01:12:36.543Z,99305.38
2023-02-01T01:17:42.444Z,99303.70
2023-02-01T01:22:48.487Z,99307.55
2023-02-01T01:27:54.156Z,99311.77
2023-02-01T01:33:00.043Z,99319.20
2023-02-01T01:38:05.669Z,99332.31
2023-02-01T01:43:16.447Z,99335.10
2023-02-01T01:48:26.814Z,99334.41
2023-02-01T01:53:39.066Z,99339.38
2023-02-01T01:58:45.041Z,99341.30
2023-02-01T02:03:51.715Z,99344.23
2023-02-01T02:08:57.413Z,99346.10
2023-02-01T02:14:06.172Z,99344.39
2023-02-01T02:19:33.318Z,99338.42
2023-02-01T02:24:59.003Z,99337.95
2023-02-01T02:30:33.495Z,99342.61
2023-02-01T02:35:48.149Z,99349.86
2023-02-01T02:41:02.614Z,99357.89
2023-02-01T02:46:36.613Z,99363.88
2023-02-01T02:52:06.148Z,99375.52
2023-02-01T02:57:36.617Z,99378.91
2023-02-01T03:03:01.973Z,99375.63
2023-02-01T03:08:14.688Z,99376.83
2023-02-01T03:13:32.198Z,99378.01
2023-02-01T03:18:42.737Z,99380.20
2023-02-01T03:23:50.418Z,99376.95
2023-02-01T03:29:01.198Z,99369.23
2023-02-01T03:34:07.330Z,99373.88
2023-02-01T03:39:20.267Z,99385.73
2023-02-01T03:44:30.693Z,99388.67
2023-02-01T03:49:39.752Z,99383.89
2023-02-01T03:54:47.806Z,99383.77
2023-02-01T03:59:53.640Z,99387.09
2023-02-01T04:04:59.235Z,99390.88
2023-02-01T04:10:06.424Z,99387.31
2023-02-01T04:15:12.847Z,99390.94
2023-02-01T04:20:18.936Z,99394.55
2023-02-01T04:25:24.850Z,99400.52
2023-02-01T04:30:31.206Z,99397.39
2023-02-01T04:35:36.940Z,99399.92
2023-02-01T04:40:42.562Z,99402.28
2023-02-01T04:45:52.482Z,99404.98
2023-02-01T04:50:58.327Z,99409.40
2023-02-01T04:56:04.582Z,99415.89
2023-02-01T05:01:10.256Z,99413.80
2023-02-01T05:06:15.887Z,99417.55
2023-02-01T05:11:40.820Z,99419.94
2023-02-01T05:16:46.597Z,99422.34
2023-02-01T05:21:52.241Z,99423.01
2023-02-01T05:26:57.855Z,99423.70
2023-02-01T05:32:20.540Z,99420.46
2023-02-01T05:37:27.404Z,99423.38
2023-02-01T05:42:33.513Z,99415.30
2023-02-01T05:47:39.202Z,99406.91
2023-02-01T05:52:47.238Z,99416.86
2023-02-01T05:57:55.654Z,99415.64
2023-02-01T06:03:01.617Z,99411.88
2023-02-01T06:08:08.536Z,99411.52
2023-02-01T06:13:14.257Z,99411.85
2023-02-01T06:18:20.070Z,99407.87
2023-02-01T06:23:25.835Z,99401.52
2023-02-01T06:28:33.181Z,99401.52
2023-02-01T06:33:41.297Z,99395.66
2023-02-01T06:38:47.447Z,99395.28
2023-02-01T06:43:53.438Z,99396.98
2023-02-01T06:48:59.009Z,99401.58
2023-02-01T06:54:05.082Z,99403.59
2023-02-01T06:59:11.139Z,99404.10
2023-02-01T07:04:16.722Z,99409.05
2023-02-01T07:09:22.546Z,99412.65
2023-02-01T07:14:28.237Z,99416.08
2023-02-01T07:19:34.013Z,99407.86
2023-02-01T07:24:39.597Z,99405.96
2023-02-01T07:29:45.576Z,99409.03
2023-02-01T07:34:51.347Z,99409.55
2023-02-01T07:39:57.008Z,99414.14
2023-02-01T07:45:19.023Z,99420.40
2023-02-01T07:50:26.547Z,99421.55
2023-02-01T07:55:32.392Z,99420.16
2023-02-01T08:00:56.767Z,99417.38
2023-02-01T08:06:02.687Z,99411.48
2023-02-01T08:11:09.613Z,99410.25
2023-02-01T08:16:16.983Z,99405.95
2023-02-01T08:21:24.789Z,99405.20
2023-02-01T08:26:30.492Z,99400.34
2023-02-01T08:31:37.342Z,99403.73
2023-02-01T08:36:43.211Z,99403.67
2023-02-01T08:42:09.515Z,99397.44
2023-02-01T08:47:15.227Z,99397.20
2023-02-01T08:52:20.932Z,99401.03
2023-02-01T08:57:27.284Z,99408.89
2023-02-01T09:02:33.657Z,99415.27
2023-02-01T09:07:39.836Z,99413.22
2023-02-01T09:12:45.512Z,99410.64
2023-02-01T09:17:51.475Z,99406.20
2023-02-01T09:22:57.914Z,99412.27
2023-02-01T09:28:06.280Z,99405.39
2023-02-01T09:33:11.939Z,99398.00
2023-02-01T09:38:17.716Z,99385.86
2023-02-01T09:43:41.135Z,99392.13
2023-02-01T09:48:49.810Z,99385.77
2023-02-01T09:54:05.490Z,99387.80
2023-02-01T09:59:26.172Z,99394.31
2023-02-01T10:04:34.573Z,99395.33
2023-02-01T10:09:50.231Z,99396.37
2023-02-01T10:15:10.581Z,99392.28
2023-02-01T10:20:25.605Z,99393.67
2023-02-01T10:25:38.171Z,99387.88
2023-02-01T10:30:47.135Z,99384.79
2023-02-01T10:35:59.885Z,99386.83
2023-02-01T10:41:15.063Z,99392.87
2023-02-01T10:46:21.336Z,99394.05
2023-02-01T10:51:31.694Z,99393.30
2023-02-01T10:56:39.938Z,99386.39
2023-02-01T11:01:48.522Z,99391.36
2023-02-01T11:07:08.640Z,99390.73
2023-02-01T11:12:29.294Z,99386.60
2023-02-01T11:17:41.087Z,99383.30
2023-02-01T11:22:55.069Z,99379.04
2023-02-01T11:28:02.295Z,99377.80
2023-02-01T11:33:13.593Z,99378.70
2023-02-01T11:38:27.537Z,99372.37
2023-02-01T11:43:33.314Z,99370.64
2023-02-01T11:48:39.100Z,99362.58
2023-02-01T11:54:03.448Z,99364.11
2023-02-01T11:59:20.562Z,99360.23
2023-02-01T12:04:53.754Z,99353.88
2023-02-01T12:10:13.836Z,99348.65
2023-02-01T12:15:48.217Z,99351.86
2023-02-01T12:21:04.796Z,99349.56
2023-02-01T12:26:36.437Z,99344.19
2023-02-01T12:32:04.030Z,99344.45
2023-02-01T12:37:23.093Z,99357.85
2023-02-01T12:42:33.908Z,99357.80
2023-02-01T12:47:45.663Z,99350.14
2023-02-01T12:52:54.332Z,99351.47
2023-02-01T12:58:12.550Z,99351.16
2023-02-01T13:03:30.200Z,99350.89
2023-02-01T13:08:41.660Z,99345.73
2023-02-01T13:13:55.876Z,99347.61
2023-02-01T13:19:09.960Z,99346.34
2023-02-01T13:24:28.996Z,99349.83
2023-02-01T13:29:38.168Z,99357.55
2023-02-01T13:35:10.426Z,99356.41
2023-02-01T13:40:35.722Z,99357.39
2023-02-01T13:45:51.111Z,99355.92
2023-02-01T13:50:59.674Z,99361.05
2023-02-01T13:56:10.278Z,99361.60
2023-02-01T14:01:38.186Z,99360.13
2023-02-01T14:06:47.466Z,99365.25
2023-02-01T14:11:54.713Z,99361.11
2023-02-01T14:17:35.198Z,99360.18
2023-02-01T14:22:41.631Z,99360.33
2023-02-01T14:27:47.388Z,99359.86
2023-02-01T14:32:54.269Z,99361.95
2023-02-01T14:38:08.510Z,99359.02
2023-02-01T14:43:23.395Z,99357.74
2023-02-01T14:48:51.904Z,99360.55
2023-02-01T14:53:59.115Z,99364.84
2023-02-01T14:59:14.096Z,99360.12
2023-02-01T15:04:22.810Z,99358.81
2023-02-01T15:09:31.538Z,99359.98
2023-02-01T15:14:41.373Z,99366.70
2023-02-01T15:19:55.540Z,99369.50
2023-02-01T15:25:01.973Z,99377.73
2023-02-01T15:30:20.387Z,99380.13
2023-02-01T15:35:45.390Z,99380.45
2023-02-01T15:41:00.599Z,99381.23
2023-02-01T15:46:12.088Z,99378.62
2023-02-01T15:51:20.419Z,99375.88
2023-02-01T15:56:32.153Z,99371.60
2023-02-01T16:01:43.428Z,99371.83
2023-02-01T16:06:51.937Z,99370.30
2023-02-01T16:12:03.336Z,99378.08
2023-02-01T16:17:10.896Z,99378.45
2023-02-01T16:22:16.586Z,99374.99
2023-02-01T16:27:23.341Z,99377.77
2023-02-01T16:32:29.118Z,99377.30
2023-02-01T16:37:37.277Z,99376.62
2023-02-01T16:42:43.383Z,99372.69
2023-02-01T16:47:53.542Z,99378.59
2023-02-01T16:52:59.410Z,99370.91
2023-02-01T16:58:05.302Z,99368.88
2023-02-01T17:03:17.605Z,99370.72
2023-02-01T17:08:29.761Z,99372.98
2023-02-01T17:13:35.927Z,99393.55
2023-02-01T17:18:41.773Z,99396.73
2023-02-01T17:23:48.035Z,99388.36
2023-02-01T17:28:53.648Z,99386.98
2023-02-01T17:33:59.402Z,99381.42
2023-02-01T17:39:06.632Z,99389.77
2023-02-01T17:44:12.417Z,99386.46
2023-02-01T17:49:18.019Z,99387.12
2023-02-01T17:54:25.806Z,99391.69
2023-02-01T17:59:31.494Z,99393.90
2023-02-01T18:04:37.798Z,99396.89
2023-02-01T18:09:43.307Z,99405.52
2023-02-01T18:14:49.351Z,99411.61
2023-02-01T18:19:55.308Z,99402.09
2023-02-01T18:25:01.051Z,99395.34
2023-02-01T18:30:08.823Z,99395.91
2023-02-01T18:35:24.082Z,99403.37
2023-02-01T18:40:34.525Z,99403.43
2023-02-01T18:45:41.662Z,99401.05
2023-02-01T18:50:48.061Z,99396.92
2023-02-01T18:55:54.920Z,99394.88
2023-02-01T19:01:09.110Z,99386.67
2023-02-01T19:06:20.032Z,99383.77
2023-02-01T19:11:26.344Z,99380.56
2023-02-01T19:16:32.079Z,99374.82
2023-02-01T19:21:37.856Z,99377.07
2023-02-01T19:26:43.878Z,99377.39
2023-02-01T19:31:50.127Z,99373.63
2023-02-01T19:36:55.912Z,99379.00
2023-02-01T19:42:03.524Z,99377.59
2023-02-01T19:47:10.465Z,99373.64
2023-02-01T19:52:16.240Z,99371.16
2023-02-01T19:57:22.048Z,99378.66
2023-02-01T20:02:28.840Z,99391.23
2023-02-01T20:07:34.718Z,99389.73
2023-02-01T20:12:40.509Z,99392.98
2023-02-01T20:17:46.028Z,99390.02
2023-02-01T20:22:53.321Z,99381.25
2023-02-01T20:28:00.236Z,99374.55
2023-02-01T20:33:06.183Z,99373.20
2023-02-01T20:38:11.782Z,99374.63
2023-02-01T20:43:17.731Z,99368.67
2023-02-01T20:48:23.550Z,99369.99
2023-02-01T20:53:29.370Z,99371.61
2023-02-01T20:58:35.296Z,99373.35
2023-02-01T21:03:41.383Z,99379.49
2023-02-01T21:08:47.163Z,99378.75
2023-02-01T21:13:53.170Z,99380.58
2023-02-01T21:18:58.894Z,99381.42
2023-02-01T21:24:05.101Z,99380.92
2023-02-01T21:29:13.974Z,99377.84
2023-02-01T21:34:20.404Z,99378.85
2023-02-01T21:39:29.203Z,99384.25
2023-02-01T21:44:59.526Z,99381.30
2023-02-01T21:50:06.332Z,99370.02
2023-02-01T21:55:13.811Z,99370.77
2023-02-01T22:00:20.800Z,99367.90
2023-02-01T22:05:27.433Z,99364.33
2023-02-01T22:10:33.411Z,99363.34
2023-02-01T22:15:39.278Z,99364.88
2023-02-01T22:20:45.077Z,99366.17
2023-02-01T22:25:50.863Z,99367.30
2023-02-01T22:31:01.154Z,99369.31
2023-02-01T22:36:08.055Z,99367.02
2023-02-01T22:41:14.245Z,99361.28
2023-02-01T22:46:22.972Z,99357.60
2023-02-01T22:51:31.009Z,99353.46
2023-02-01T22:56:37.591Z,99347.95
2023-02-01T23:01:43.842Z,99347.23
2023-02-01T23:06:52.186Z,99344.19
2023-02-01T23:11:57.860Z,99343.76
2023-02-01T23:17:03.477Z,99341.57
2023-02-01T23:22:09.057Z,99341.27
2023-02-01T23:27:14.840Z,99340.86
2023-02-01T23:32:20.739Z,99345.27
2023-02-01T23:37:26.948Z,99346.91
2023-02-01T23:42:33.266Z,99342.67
2023-02-01T23:47:39.245Z,99340.67
2023-02-01T23:52:44.864Z,99342.45
2023-02-01T23:57:50.898Z,99336.48
